Time,TemperatureF,DewpointF,PressureIn,WindDirection,WindDirectionDegrees,WindSpeedMPH,WindSpeedGustMPH,Humidity,HourlyPrecipIn,Conditions,Clouds,dailyrainin,SolarRadiationWatts/m^2,SoftwareType,DateUTC
2013-04-11 00:00:00,66.8,58.3,30.01,South,186,0.0,7.0,74,0.00,,CLR,0.00,0.00,VWS V14.00,2013-04-11 04:00:00,
2013-04-11 00:05:00,66.6,58.1,30.01,SSW,208,0.0,1.0,74,0.00,,CLR,0.00,0.00,VWS V14.00,2013-04-11 04:05:00,
2013-04-11 00:10:00,66.4,58.2,30.01,SSW,213,0.0,3.0,75,0.00,,CLR,0.00,0.00,VWS V14.00,2013-04-11 04:10:00,
2013-04-11 00:15:00,66.4,58.2,30.01,SW,219,5.0,5.0,75,0.00,,CLR,0.00,0.00,VWS V14.00,2013-04-11 04:15:00,
2013-04-11 00:20:00,66.3,58.5,30.01,South,182,0.0,8.0,76,0.00,,CLR,0.00,0.00,VWS V14.00,2013-04-11 04:20:00,
2013-04-11 00:25:00,66.1,58.3,30.01,SSW,202,0.0,3.0,76,0.00,,CLR,0.00,0.00,VWS V14.00,2013-04-11 04:25:00,
2013-04-11 00:30:00,66.1,58.3,30.02,SW,216,0.0,4.0,76,0.00,,CLR,0.00,0.00,VWS V14.00,2013-04-11 04:30:00,
2013-04-11 00:35:00,66.0,58.2,30.02,WSW,243,0.0,4.0,76,0.00,,CLR,0.00,0.00,VWS V14.00,2013-04-11 04:35:00,
2013-04-11 00:40:00,66.0,58.6,30.02,WSW,243,0.0,6.0,77,0.00,,CLR,0.00,0.00,VWS V14.00,2013-04-11 04:40:00,
2013-04-11 00:45:00,65.8,58.4,30.03,SSW,196,3.0,5.0,77,0.00,,CLR,0.00,0.00,VWS V14.00,2013-04-11 04:45:00,
2013-04-11 00:50:00,65.8,58.8,30.03,SSW,192,0.0,6.0,78,0.00,,CLR,0.00,0.00,VWS V14.00,2013-04-11 04:50:00,
2013-04-11 00:55:00,65.8,58.8,30.03,SW,220,0.0,8.0,78,0.00,,CLR,0.00,0.00,VWS V14.00,2013-04-11 04:55:00,
2013-04-11 01:00:00,65.6,58.6,30.01,SSW,210,0.0,8.0,78,0.00,,CLR,0.00,0.00,VWS V14.00,2013-04-11 05:00:00,
2013-04-11 01:05:00,65.6,58.9,30.01,SSW,210,0.0,6.0,79,0.00,,CLR,0.00,0.00,VWS V14.00,2013-04-11 05:05:00,
2013-04-11 01:11:00,65.6,58.9,30.01,SSE,168,0.0,6.0,79,0.00,,CLR,0.00,0.00,VWS V14.00,2013-04-11 05:11:00,
2013-04-11 01:16:00,65.5,58.8,30.01,SW,216,0.0,3.0,79,0.00,,CLR,0.00,0.00,VWS V14.00,2013-04-11 05:16:00,
2013-04-11 01:21:00,65.3,59.0,30.01,South,169,0.0,0.0,80,0.00,,CLR,0.00,0.00,VWS V14.00,2013-04-11 05:21:00,
2013-04-11 01:26:00,65.3,59.0,30.01,SW,222,1.0,3.0,80,0.00,,CLR,0.00,0.00,VWS V14.00,2013-04-11 05:26:00,
2013-04-11 01:31:00,65.2,58.9,30.01,SW,222,1.0,1.0,80,0.00,,CLR,0.00,0.00,VWS V14.00,2013-04-11 05:31:00,
2013-04-11 01:36:00,65.0,58.7,30.01,WSW,239,1.0,7.0,80,0.00,,CLR,0.00,0.00,VWS V14.00,2013-04-11 05:36:00,
2013-04-11 01:41:00,65.0,59.0,30.01,SSW,213,0.0,1.0,81,0.00,,CLR,0.00,0.00,VWS V14.00,2013-04-11 05:41:00,
2013-04-11 01:46:00,64.8,58.8,30.01,SSW,209,0.0,4.0,81,0.00,,CLR,0.00,0.00,VWS V14.00,2013-04-11 05:46:00,
2013-04-11 01:51:00,64.7,58.7,30.01,SW,223,0.0,0.0,81,0.00,,CLR,0.00,0.00,VWS V14.00,2013-04-11 05:51:00,
2013-04-11 01:56:00,64.5,58.9,30.01,SW,222,0.0,1.0,82,0.00,,CLR,0.00,0.00,VWS V14.00,2013-04-11 05:56:00,
2013-04-11 02:01:00,64.5,58.9,30.00,SW,222,0.0,0.0,82,0.00,,CLR,0.00,0.00,VWS V14.00,2013-04-11 06:01:00,
2013-04-11 02:06:00,64.3,58.7,30.00,SSW,195,0.0,2.0,82,0.00,,CLR,0.00,0.00,VWS V14.00,2013-04-11 06:06:00,
2013-04-11 02:12:00,64.2,58.9,30.00,SSW,212,0.0,0.0,83,0.00,,CLR,0.00,0.00,VWS V14.00,2013-04-11 06:12:00,
2013-04-11 02:17:00,64.2,58.9,30.00,SSW,212,0.0,1.0,83,0.00,,CLR,0.00,0.00,VWS V14.00,2013-04-11 06:17:00,
2013-04-11 02:22:00,64.0,58.7,30.00,SSW,212,0.0,0.0,83,0.00,,CLR,0.00,0.00,VWS V14.00,2013-04-11 06:22:00,
2013-04-11 02:27:00,64.0,59.1,30.00,SSW,213,0.0,2.0,84,0.00,,CLR,0.00,0.00,VWS V14.00,2013-04-11 06:27:00,
2013-04-11 02:32:00,63.9,59.0,30.01,SSW,200,2.0,3.0,84,0.00,,CLR,0.00,0.00,VWS V14.00,2013-04-11 06:32:00,
2013-04-11 02:37:00,63.9,59.0,30.01,SSW,206,0.0,4.0,84,0.00,,CLR,0.00,0.00,VWS V14.00,2013-04-11 06:37:00,
2013-04-11 02:42:00,63.7,58.8,30.01,SSW,205,0.0,0.0,84,0.00,,CLR,0.00,0.00,VWS V14.00,2013-04-11 06:42:00,
2013-04-11 02:47:00,63.5,58.6,30.01,SSW,205,0.0,0.0,84,0.00,,CLR,0.00,0.00,VWS V14.00,2013-04-11 06:47:00,
2013-04-11 02:52:00,63.5,58.6,30.01,SSW,205,0.0,0.0,84,0.00,,CLR,0.00,0.00,VWS V14.00,2013-04-11 06:52:00,
2013-04-11 02:57:00,63.4,58.5,30.01,SSW,206,0.0,1.0,84,0.00,,CLR,0.00,0.00,VWS V14.00,2013-04-11 06:57:00,
2013-04-11 03:02:00,63.2,58.3,30.01,SSW,206,0.0,0.0,84,0.00,,CLR,0.00,0.00,VWS V14.00,2013-04-11 07:02:00,
2013-04-11 03:07:00,63.2,58.3,30.01,SSW,206,0.0,0.0,84,0.00,,CLR,0.00,0.00,VWS V14.00,2013-04-11 07:07:00,
2013-04-11 03:12:00,63.1,58.2,30.01,SSW,206,0.0,0.0,84,0.00,,CLR,0.00,0.00,VWS V14.00,2013-04-11 07:12:00,
2013-04-11 03:17:00,63.1,58.2,30.00,SSW,206,0.0,0.0,84,0.00,,CLR,0.00,0.00,VWS V14.00,2013-04-11 07:17:00,
2013-04-11 03:22:00,62.9,58.0,30.00,SSW,206,0.0,0.0,84,0.00,,CLR,0.00,0.00,VWS V14.00,2013-04-11 07:22:00,
2013-04-11 03:27:00,62.7,57.8,30.00,SSW,206,0.0,0.0,84,0.00,,CLR,0.00,0.00,VWS V14.00,2013-04-11 07:27:00,
2013-04-11 03:32:00,62.6,57.7,30.00,SSW,206,0.0,0.0,84,0.00,,CLR,0.00,0.00,VWS V14.00,2013-04-11 07:32:00,
2013-04-11 03:37:00,62.4,57.5,30.00,SSW,206,0.0,0.0,84,0.00,,CLR,0.00,0.00,VWS V14.00,2013-04-11 07:37:00,
2013-04-11 03:42:00,62.3,57.4,30.00,SSW,206,0.0,0.0,84,0.00,,CLR,0.00,0.00,VWS V14.00,2013-04-11 07:42:00,
2013-04-11 03:47:00,62.1,57.2,29.99,SSW,206,0.0,0.0,84,0.00,,CLR,0.00,0.00,VWS V14.00,2013-04-11 07:47:00,
2013-04-11 03:52:00,61.8,56.9,29.99,SSW,206,0.0,0.0,84,0.00,,CLR,0.00,0.00,VWS V14.00,2013-04-11 07:52:00,
2013-04-11 03:57:00,61.6,56.7,29.99,SSW,206,0.0,0.0,84,0.00,,CLR,0.00,0.00,VWS V14.00,2013-04-11 07:57:00,
2013-04-11 04:02:00,61.5,57.0,29.99,SSW,206,0.0,0.0,85,0.00,,,0.00,0.00,VWS V14.00,2013-04-11 08:02:00,
2013-04-11 04:07:00,61.5,57.0,29.99,SSW,205,0.0,0.0,85,0.00,,,0.00,0.00,VWS V14.00,2013-04-11 08:07:00,
2013-04-11 04:12:00,61.3,56.8,29.99,SSW,206,0.0,0.0,85,0.00,,,0.00,0.00,VWS V14.00,2013-04-11 08:12:00,
2013-04-11 04:17:00,61.3,56.8,29.99,SSW,205,0.0,0.0,85,0.00,,,0.00,0.00,VWS V14.00,2013-04-11 08:17:00,
2013-04-11 04:22:00,61.3,57.1,29.99,SSW,205,0.0,0.0,86,0.00,,,0.00,0.00,VWS V14.00,2013-04-11 08:22:00,
2013-04-11 04:27:00,61.3,57.1,29.99,SSW,206,0.0,0.0,86,0.00,,,0.00,0.00,VWS V14.00,2013-04-11 08:27:00,
2013-04-11 04:32:00,61.3,57.1,29.99,SSW,206,0.0,0.0,86,0.00,,,0.00,0.00,VWS V14.00,2013-04-11 08:32:00,
2013-04-11 04:37:00,61.3,57.1,29.99,SSW,206,0.0,0.0,86,0.00,,,0.00,0.00,VWS V14.00,2013-04-11 08:37:00,
2013-04-11 04:42:00,61.2,57.3,29.99,SSW,206,0.0,0.0,87,0.00,,,0.00,0.00,VWS V14.00,2013-04-11 08:42:00,
2013-04-11 04:47:00,61.2,57.3,29.98,SSW,206,0.0,0.0,87,0.00,,,0.00,0.00,VWS V14.00,2013-04-11 08:47:00,
2013-04-11 04:52:00,61.2,57.3,29.98,SSW,206,0.0,0.0,87,0.00,,,0.00,0.00,VWS V14.00,2013-04-11 08:52:00,
2013-04-11 04:57:00,61.2,57.3,29.98,SSW,206,0.0,0.0,87,0.00,,,0.00,0.00,VWS V14.00,2013-04-11 08:57:00,
2013-04-11 05:02:00,61.3,57.4,29.98,SSW,205,0.0,0.0,87,0.00,,,0.00,0.00,VWS V14.00,2013-04-11 09:02:00,
2013-04-11 05:07:00,61.3,57.7,29.98,SSW,206,0.0,0.0,88,0.00,,,0.00,0.00,VWS V14.00,2013-04-11 09:07:00,
2013-04-11 05:12:00,61.5,57.9,29.98,SSW,206,0.0,0.0,88,0.00,,,0.00,0.00,VWS V14.00,2013-04-11 09:12:00,
2013-04-11 05:17:00,61.5,57.9,29.98,SSW,206,0.0,0.0,88,0.00,,,0.00,0.00,VWS V14.00,2013-04-11 09:17:00,
2013-04-11 05:22:00,61.6,58.0,29.98,SSW,205,0.0,0.0,88,0.00,,,0.00,0.00,VWS V14.00,2013-04-11 09:22:00,
2013-04-11 05:27:00,61.8,58.2,29.98,SSW,205,0.0,0.0,88,0.00,,,0.00,0.00,VWS V14.00,2013-04-11 09:27:00,
2013-04-11 05:32:00,61.8,58.2,29.99,SSW,206,0.0,0.0,88,0.00,,BKN012,0.00,0.00,VWS V14.00,2013-04-11 09:32:00,
2013-04-11 05:37:00,61.8,58.2,29.99,SSW,206,0.0,0.0,88,0.00,,BKN012,0.00,0.00,VWS V14.00,2013-04-11 09:37:00,
2013-04-11 05:42:00,62.0,58.4,29.99,SSW,206,0.0,0.0,88,0.00,,BKN012,0.00,0.00,VWS V14.00,2013-04-11 09:42:00,
2013-04-11 05:47:00,62.0,58.7,29.99,SSW,206,0.0,0.0,89,0.00,,BKN012,0.00,0.00,VWS V14.00,2013-04-11 09:47:00,
2013-04-11 05:52:00,62.0,58.7,29.99,SSW,206,0.0,0.0,89,0.00,,OVC012,0.00,0.00,VWS V14.00,2013-04-11 09:52:00,
2013-04-11 05:57:00,62.1,58.8,29.99,SSW,206,0.0,0.0,89,0.00,,OVC012,0.00,0.00,VWS V14.00,2013-04-11 09:57:00,
2013-04-11 06:02:00,62.1,58.8,30.00,SSW,206,0.0,0.0,89,0.00,,OVC008,0.00,0.00,VWS V14.00,2013-04-11 10:02:00,
2013-04-11 06:07:00,62.3,59.0,30.00,SSW,206,0.0,0.0,89,0.00,,OVC008,0.00,0.00,VWS V14.00,2013-04-11 10:07:00,
2013-04-11 06:12:00,62.3,59.0,30.00,SSW,206,0.0,0.0,89,0.00,,OVC008,0.00,0.00,VWS V14.00,2013-04-11 10:12:00,
2013-04-11 06:17:00,62.4,59.1,29.99,SSW,206,0.0,0.0,89,0.00,,OVC008,0.00,0.00,VWS V14.00,2013-04-11 10:17:00,
2013-04-11 06:22:00,62.4,59.1,29.99,SSW,205,0.0,0.0,89,0.00,,OVC008,0.00,0.00,VWS V14.00,2013-04-11 10:22:00,
2013-04-11 06:28:00,62.4,59.1,29.99,SSW,206,0.0,0.0,89,0.00,,OVC008,0.00,0.00,VWS V14.00,2013-04-11 10:28:00,
2013-04-11 06:33:00,62.6,59.3,30.00,SSW,205,0.0,1.0,89,0.00,,OVC006,0.00,0.00,VWS V14.00,2013-04-11 10:33:00,
2013-04-11 06:38:00,62.7,59.4,30.00,SSW,205,0.0,1.0,89,0.00,,OVC006,0.00,0.00,VWS V14.00,2013-04-11 10:38:00,
2013-04-11 06:43:00,63.1,60.1,30.00,SSW,202,0.0,2.0,90,0.00,,OVC006,0.00,0.00,VWS V14.00,2013-04-11 10:43:00,
2013-04-11 06:48:00,63.2,60.2,30.00,SW,226,0.0,5.0,90,0.00,,OVC006,0.00,0.00,VWS V14.00,2013-04-11 10:48:00,
2013-04-11 06:53:00,63.4,60.4,30.00,SW,220,3.0,3.0,90,0.00,,OVC004,0.00,0.00,VWS V14.00,2013-04-11 10:53:00,
2013-04-11 06:58:00,63.5,60.5,30.00,SSW,208,0.0,3.0,90,0.00,,OVC004,0.00,0.00,VWS V14.00,2013-04-11 10:58:00,
2013-04-11 07:03:00,63.7,60.7,30.00,SSW,203,0.0,0.0,90,0.00,,OVC004,0.00,0.00,VWS V14.00,2013-04-11 11:03:00,
2013-04-11 07:08:00,63.9,60.9,30.00,SSW,209,0.0,5.0,90,0.00,,OVC004,0.00,0.00,VWS V14.00,2013-04-11 11:08:00,
2013-04-11 07:13:00,63.9,60.9,30.00,SW,226,3.0,8.0,90,0.00,,OVC004,0.00,5.00,VWS V14.00,2013-04-11 11:13:00,
2013-04-11 07:18:00,64.0,61.0,30.01,SSW,199,1.0,8.0,90,0.00,,OVC004,0.00,5.00,VWS V14.00,2013-04-11 11:18:00,
2013-04-11 07:23:00,64.0,61.0,30.01,SSW,209,1.0,1.0,90,0.00,,OVC004,0.00,7.00,VWS V14.00,2013-04-11 11:23:00,
2013-04-11 07:28:00,64.2,61.2,30.01,SW,222,0.0,6.0,90,0.00,,OVC004,0.00,9.00,VWS V14.00,2013-04-11 11:28:00,
2013-04-11 07:33:00,64.2,61.2,30.01,WSW,248,0.0,6.0,90,0.00,,,0.00,7.00,VWS V14.00,2013-04-11 11:33:00,
2013-04-11 07:38:00,64.2,61.5,30.01,West,261,0.0,6.0,91,0.00,,,0.00,9.00,VWS V14.00,2013-04-11 11:38:00,
2013-04-11 07:43:00,64.2,61.5,30.01,SSW,195,0.0,0.0,91,0.00,,,0.00,12.00,VWS V14.00,2013-04-11 11:43:00,
2013-04-11 07:48:00,64.3,61.6,30.01,SW,219,2.0,7.0,91,0.00,,,0.00,14.00,VWS V14.00,2013-04-11 11:48:00,
2013-04-11 07:53:00,64.3,62.8,30.01,SW,215,1.0,6.0,95,0.00,,,0.00,35.00,VWS V14.00,2013-04-11 11:53:00,
2013-04-11 07:58:00,64.3,62.8,30.01,SW,226,0.0,6.0,95,0.00,,,0.00,35.00,VWS V14.00,2013-04-11 11:58:00,
2013-04-11 08:03:00,64.3,62.8,30.01,SSW,209,0.0,0.0,95,0.00,,,0.00,33.00,VWS V14.00,2013-04-11 12:03:00,
2013-04-11 08:08:00,64.5,63.3,30.01,SSW,209,0.0,6.0,96,0.00,,,0.00,39.00,VWS V14.00,2013-04-11 12:08:00,
2013-04-11 08:13:00,64.5,63.3,30.01,SSW,209,0.0,0.0,96,0.00,,,0.00,40.00,VWS V14.00,2013-04-11 12:13:00,
2013-04-11 08:18:00,64.7,63.5,30.01,SSW,199,2.0,3.0,96,0.00,,,0.00,48.00,VWS V14.00,2013-04-11 12:18:00,
2013-04-11 08:23:00,64.7,63.5,30.01,SSW,213,5.0,8.0,96,0.00,,,0.00,51.00,VWS V14.00,2013-04-11 12:23:00,
2013-04-11 08:28:00,64.7,63.5,30.01,SSW,193,0.0,8.0,96,0.00,,,0.00,51.00,VWS V14.00,2013-04-11 12:28:00,
2013-04-11 08:33:00,64.8,63.6,30.02,WSW,250,2.0,6.0,96,0.00,,,0.00,69.00,VWS V14.00,2013-04-11 12:33:00,
2013-04-11 08:38:00,64.8,63.6,30.02,WSW,241,0.0,6.0,96,0.00,,,0.00,60.00,VWS V14.00,2013-04-11 12:38:00,
2013-04-11 08:43:00,64.8,63.6,30.02,SW,215,0.0,8.0,96,0.00,,,0.00,72.00,VWS V14.00,2013-04-11 12:43:00,
2013-04-11 08:48:00,64.8,63.6,30.02,SSW,206,0.0,8.0,96,0.00,,,0.00,76.00,VWS V14.00,2013-04-11 12:48:00,
2013-04-11 08:53:00,65.0,63.8,30.02,WSW,239,3.0,6.0,96,0.00,,,0.00,74.00,VWS V14.00,2013-04-11 12:53:00,
2013-04-11 08:58:00,65.0,63.8,30.02,WSW,257,0.0,7.0,96,0.00,,,0.00,90.00,VWS V14.00,2013-04-11 12:58:00,
2013-04-11 09:03:00,65.0,63.8,30.02,SW,222,0.0,5.0,96,0.00,,,0.00,111.00,VWS V14.00,2013-04-11 13:03:00,
2013-04-11 09:08:00,65.2,64.0,30.02,SW,223,5.0,7.0,96,0.00,,,0.00,121.00,VWS V14.00,2013-04-11 13:08:00,
2013-04-11 09:13:00,65.2,64.0,30.02,SSE,158,0.0,5.0,96,0.00,,,0.00,102.00,VWS V14.00,2013-04-11 13:13:00,
2013-04-11 09:18:00,65.3,64.1,30.02,WSW,244,2.0,5.0,96,0.00,,,0.00,135.00,VWS V14.00,2013-04-11 13:18:00,
2013-04-11 09:23:00,65.3,64.1,30.02,SE,145,0.0,8.0,96,0.00,,,0.00,151.00,VWS V14.00,2013-04-11 13:23:00,
2013-04-11 09:28:00,65.3,64.1,30.02,WSW,253,0.0,8.0,96,0.00,,,0.00,143.00,VWS V14.00,2013-04-11 13:28:00,
2013-04-11 09:33:00,65.5,64.3,30.02,WSW,240,5.0,6.0,96,0.00,,,0.00,164.00,VWS V14.00,2013-04-11 13:33:00,
2013-04-11 09:38:00,65.5,64.3,30.02,SW,223,0.0,6.0,96,0.00,,,0.00,109.00,VWS V14.00,2013-04-11 13:38:00,
2013-04-11 09:43:00,65.6,64.4,30.02,SW,215,0.0,1.0,96,0.00,,,0.00,116.00,VWS V14.00,2013-04-11 13:43:00,
2013-04-11 09:48:00,65.8,64.6,30.02,SW,223,1.0,6.0,96,0.00,,,0.00,107.00,VWS V14.00,2013-04-11 13:48:00,
2013-04-11 09:53:00,65.8,64.6,30.02,SSW,203,0.0,3.0,96,0.00,,,0.00,109.00,VWS V14.00,2013-04-11 13:53:00,
2013-04-11 09:58:00,66.0,64.8,30.02,WSW,250,2.0,5.0,96,0.00,,,0.00,215.00,VWS V14.00,2013-04-11 13:58:00,
2013-04-11 10:03:00,66.1,64.9,30.01,SW,220,0.0,3.0,96,0.00,,,0.00,123.00,VWS V14.00,2013-04-11 14:03:00,
2013-04-11 10:08:00,66.3,65.1,30.01,South,188,0.0,6.0,96,0.00,,,0.00,218.00,VWS V14.00,2013-04-11 14:08:00,
2013-04-11 10:13:00,66.6,65.4,30.01,SSW,198,0.0,6.0,96,0.00,,,0.00,208.00,VWS V14.00,2013-04-11 14:13:00,
2013-04-11 10:18:00,66.9,65.7,30.01,West,261,5.0,6.0,96,0.00,,,0.00,199.00,VWS V14.00,2013-04-11 14:18:00,
2013-04-11 10:23:00,66.9,65.4,30.01,WSW,248,0.0,0.0,95,0.00,,,0.00,253.00,VWS V14.00,2013-04-11 14:23:00,
2013-04-11 10:28:00,67.1,65.6,30.01,South,176,3.0,6.0,95,0.00,,,0.00,169.00,VWS V14.00,2013-04-11 14:28:00,
2013-04-11 10:33:00,67.3,65.5,30.02,SW,215,1.0,6.0,94,0.00,,,0.00,252.00,VWS V14.00,2013-04-11 14:33:00,
2013-04-11 10:38:00,67.6,65.8,30.02,SSE,167,0.0,6.0,94,0.00,,,0.00,192.00,VWS V14.00,2013-04-11 14:38:00,
2013-04-11 10:43:00,67.8,65.7,30.02,SW,236,0.0,2.0,93,0.00,,OVC010,0.00,222.00,VWS V14.00,2013-04-11 14:43:00,
2013-04-11 10:48:00,67.9,65.5,30.02,SW,232,1.0,6.0,92,0.00,,OVC010,0.00,345.00,VWS V14.00,2013-04-11 14:48:00,
2013-04-11 10:53:00,68.1,65.7,30.02,SSW,200,0.0,3.0,92,0.00,,OVC010,0.00,278.00,VWS V14.00,2013-04-11 14:53:00,
2013-04-11 10:58:00,68.6,65.9,30.02,SW,226,0.0,3.0,91,0.00,,OVC010,0.00,431.00,VWS V14.00,2013-04-11 14:58:00,
2013-04-11 11:03:00,68.9,65.5,30.01,WSW,237,0.0,4.0,89,0.00,,OVC010,0.00,278.00,VWS V14.00,2013-04-11 15:03:00,
2013-04-11 11:08:00,69.3,65.6,30.01,South,189,0.0,5.0,88,0.00,,OVC010,0.00,227.00,VWS V14.00,2013-04-11 15:08:00,
2013-04-11 11:13:00,69.6,65.6,30.01,SW,217,5.0,5.0,87,0.00,,OVC010,0.00,266.00,VWS V14.00,2013-04-11 15:13:00,
2013-04-11 11:18:00,69.8,65.4,30.01,SW,220,7.0,7.0,86,0.00,,OVC010,0.00,378.00,VWS V14.00,2013-04-11 15:18:00,
2013-04-11 11:23:00,70.1,65.4,30.01,South,175,0.0,4.0,85,0.00,,OVC010,0.00,417.00,VWS V14.00,2013-04-11 15:23:00,
2013-04-11 11:28:00,70.6,65.5,30.01,SSW,198,2.0,8.0,84,0.00,,OVC010,0.00,329.00,VWS V14.00,2013-04-11 15:28:00,
2013-04-11 11:33:00,70.9,65.5,30.00,SW,232,1.0,7.0,83,0.00,,OVC010,0.00,368.00,VWS V14.00,2013-04-11 15:33:00,
2013-04-11 11:38:00,71.5,65.7,30.00,SW,216,6.0,8.0,82,0.00,,OVC010,0.00,334.00,VWS V14.00,2013-04-11 15:38:00,
2013-04-11 11:43:00,72.1,65.9,30.00,South,174,0.0,6.0,81,0.00,,OVC010,0.00,334.00,VWS V14.00,2013-04-11 15:43:00,
2013-04-11 11:48:00,73.0,66.1,29.99,SW,230,0.0,6.0,79,0.00,,OVC010,0.00,456.00,VWS V14.00,2013-04-11 15:48:00,
2013-04-11 11:54:00,73.7,65.7,29.99,SW,229,9.0,9.0,76,0.00,,OVC010,0.00,996.00,VWS V14.00,2013-04-11 15:54:00,
2013-04-11 11:59:00,74.4,66.3,29.99,SW,230,6.0,9.0,76,0.00,,OVC010,0.00,582.00,VWS V14.00,2013-04-11 15:59:00,
2013-04-11 12:04:00,75.1,66.2,29.98,SW,232,3.0,5.0,74,0.00,,OVC014,0.00,359.00,VWS V14.00,2013-04-11 16:04:00,
2013-04-11 12:09:00,75.3,65.7,29.98,WSW,254,4.0,11.0,72,0.00,,OVC014,0.00,297.00,VWS V14.00,2013-04-11 16:09:00,
2013-04-11 12:14:00,75.3,66.1,29.98,SW,217,0.0,8.0,73,0.00,,OVC016,0.00,262.00,VWS V14.00,2013-04-11 16:14:00,
2013-04-11 12:19:00,74.9,65.3,29.99,WSW,248,8.0,11.0,72,0.00,,OVC016,0.00,266.00,VWS V14.00,2013-04-11 16:19:00,
2013-04-11 12:24:00,74.6,65.8,29.99,SSW,210,7.0,7.0,74,0.00,,OVC016,0.00,303.00,VWS V14.00,2013-04-11 16:24:00,
2013-04-11 12:29:00,74.7,65.5,29.99,SSW,192,2.0,10.0,73,0.00,,OVC016,0.00,238.00,VWS V14.00,2013-04-11 16:29:00,
2013-04-11 12:34:00,74.7,65.5,29.99,SSW,196,1.0,4.0,73,0.00,,OVC016,0.00,264.00,VWS V14.00,2013-04-11 16:34:00,
2013-04-11 12:39:00,74.7,65.5,29.99,SW,217,0.0,7.0,73,0.00,,OVC016,0.00,264.00,VWS V14.00,2013-04-11 16:39:00,
2013-04-11 12:44:00,75.3,66.1,29.99,SSW,208,5.0,8.0,73,0.00,,OVC016,0.00,876.00,VWS V14.00,2013-04-11 16:44:00,
2013-04-11 12:49:00,75.4,65.8,29.98,SW,230,2.0,12.0,72,0.00,,OVC016,0.00,375.00,VWS V14.00,2013-04-11 16:49:00,
2013-04-11 12:54:00,75.4,65.8,29.98,West,265,3.0,11.0,72,0.00,,OVC016,0.00,936.00,VWS V14.00,2013-04-11 16:54:00,
2013-04-11 12:59:00,75.8,65.7,29.98,West,268,7.0,11.0,71,0.00,,OVC016,0.00,936.00,VWS V14.00,2013-04-11 16:59:00,
2013-04-11 13:04:00,76.1,65.6,29.97,WSW,241,6.0,10.0,70,0.00,,BKN022,0.00,373.00,VWS V14.00,2013-04-11 17:04:00,
2013-04-11 13:09:00,76.5,65.6,29.97,SW,217,1.0,12.0,69,0.00,,BKN022,0.00,382.00,VWS V14.00,2013-04-11 17:09:00,
2013-04-11 13:14:00,77.0,65.6,29.97,WSW,246,3.0,6.0,68,0.00,,BKN022,0.00,644.00,VWS V14.00,2013-04-11 17:14:00,
2013-04-11 13:19:00,77.6,65.8,29.96,SSE,168,3.0,8.0,67,0.00,,BKN022,0.00,676.00,VWS V14.00,2013-04-11 17:19:00,
2013-04-11 13:24:00,78.3,66.4,29.96,SE,136,0.0,5.0,67,0.00,,BKN022,0.00,676.00,VWS V14.00,2013-04-11 17:24:00,
2013-04-11 13:29:00,79.0,66.7,29.96,WSW,241,6.0,11.0,66,0.00,,BKN022,0.00,676.00,VWS V14.00,2013-04-11 17:29:00,
2013-04-11 13:34:00,79.6,66.4,29.95,SSW,213,3.0,10.0,64,0.00,,BKN022,0.00,676.00,VWS V14.00,2013-04-11 17:34:00,
2013-04-11 13:39:00,79.6,66.4,29.95,SW,220,7.0,14.0,64,0.00,,BKN022,0.00,447.00,VWS V14.00,2013-04-11 17:39:00,
2013-04-11 13:44:00,79.6,65.9,29.95,SSW,195,6.0,8.0,63,0.00,,BKN022,0.00,355.00,VWS V14.00,2013-04-11 17:44:00,
2013-04-11 13:49:00,79.6,65.9,29.94,WSW,248,8.0,9.0,63,0.00,,BKN022,0.00,405.00,VWS V14.00,2013-04-11 17:49:00,
2013-04-11 13:54:00,79.4,65.7,29.94,WSW,237,6.0,11.0,63,0.00,,BKN022,0.00,890.00,VWS V14.00,2013-04-11 17:54:00,
2013-04-11 13:59:00,79.2,65.5,29.94,West,281,8.0,13.0,63,0.00,,BKN022,0.00,220.00,VWS V14.00,2013-04-11 17:59:00,
2013-04-11 14:04:00,78.6,65.4,29.94,SW,217,6.0,7.0,64,0.00,,BKN032,0.00,338.00,VWS V14.00,2013-04-11 18:04:00,
2013-04-11 14:09:00,78.3,65.6,29.94,SW,217,1.0,10.0,65,0.00,,BKN032,0.00,396.00,VWS V14.00,2013-04-11 18:09:00,
2013-04-11 14:14:00,78.5,65.8,29.94,SW,227,5.0,7.0,65,0.00,,BKN032,0.00,371.00,VWS V14.00,2013-04-11 18:14:00,
2013-04-11 14:19:00,78.6,65.4,29.93,SSW,213,6.0,7.0,64,0.00,,BKN032,0.00,753.00,VWS V14.00,2013-04-11 18:19:00,
2013-04-11 14:24:00,78.8,65.6,29.93,SSW,199,2.0,10.0,64,0.00,,BKN100,0.00,662.00,VWS V14.00,2013-04-11 18:24:00,
2013-04-11 14:29:00,78.8,65.6,29.93,SW,234,3.0,11.0,64,0.00,,BKN100,0.00,391.00,VWS V14.00,2013-04-11 18:29:00,
2013-04-11 14:34:00,79.2,65.5,29.92,SW,219,2.0,12.0,63,0.00,,BKN100,0.00,774.00,VWS V14.00,2013-04-11 18:34:00,
2013-04-11 14:39:00,79.4,65.3,29.92,SSW,213,5.0,12.0,62,0.00,,BKN100,0.00,801.00,VWS V14.00,2013-04-11 18:39:00,
2013-04-11 14:44:00,79.2,64.6,29.92,SW,236,2.0,12.0,61,0.00,,BKN100,0.00,574.00,VWS V14.00,2013-04-11 18:44:00,
2013-04-11 14:49:00,79.6,65.0,29.92,West,272,1.0,12.0,61,0.00,,BKN100,0.00,475.00,VWS V14.00,2013-04-11 18:49:00,
2013-04-11 14:54:00,80.1,65.4,29.92,WSW,248,10.0,10.0,61,0.00,,BKN100,0.00,475.00,VWS V14.00,2013-04-11 18:54:00,
2013-04-11 14:59:00,80.3,65.6,29.92,SSE,157,0.0,10.0,61,0.00,,BKN100,0.00,475.00,VWS V14.00,2013-04-11 18:59:00,
2013-04-11 15:04:00,80.9,65.2,29.90,WSW,243,6.0,10.0,59,0.00,,BKN050,0.00,326.00,VWS V14.00,2013-04-11 19:04:00,
2013-04-11 15:09:00,80.9,65.2,29.90,SSW,212,2.0,10.0,59,0.00,,BKN050,0.00,459.00,VWS V14.00,2013-04-11 19:09:00,
2013-04-11 15:14:00,80.9,64.8,29.90,SSW,209,2.0,13.0,58,0.00,,BKN050,0.00,535.00,VWS V14.00,2013-04-11 19:14:00,
2013-04-11 15:19:00,80.9,65.2,29.90,WSW,246,12.0,13.0,59,0.00,,BKN050,0.00,436.00,VWS V14.00,2013-04-11 19:19:00,
2013-04-11 15:24:00,80.9,65.2,29.90,WSW,241,2.0,7.0,59,0.00,,BKN050,0.00,674.00,VWS V14.00,2013-04-11 19:24:00,
2013-04-11 15:29:00,80.5,64.9,29.90,WSW,244,1.0,10.0,59,0.00,,BKN050,0.00,401.00,VWS V14.00,2013-04-11 19:29:00,
2013-04-11 15:34:00,80.5,64.9,29.88,SW,234,8.0,9.0,59,0.00,,BKN050,0.00,450.00,VWS V14.00,2013-04-11 19:34:00,
2013-04-11 15:39:00,80.3,65.2,29.88,South,174,0.0,9.0,60,0.00,,BKN050,0.00,413.00,VWS V14.00,2013-04-11 19:39:00,
2013-04-11 15:44:00,80.7,65.1,29.88,SSW,208,0.0,6.0,59,0.00,,BKN050,0.00,452.00,VWS V14.00,2013-04-11 19:44:00,
2013-04-11 15:49:00,81.1,65.4,29.86,SW,233,8.0,9.0,59,0.00,,BKN050,0.00,570.00,VWS V14.00,2013-04-11 19:49:00,
2013-04-11 15:54:00,81.4,64.7,29.86,WSW,250,5.0,8.0,57,0.00,,BKN050,0.00,596.00,VWS V14.00,2013-04-11 19:54:00,
2013-04-11 15:59:00,81.4,64.7,29.86,SSW,203,1.0,8.0,57,0.00,,BKN050,0.00,602.00,VWS V14.00,2013-04-11 19:59:00,
2013-04-11 16:04:00,81.8,65.1,29.85,South,172,1.0,7.0,57,0.00,,BKN110,0.00,574.00,VWS V14.00,2013-04-11 20:04:00,
2013-04-11 16:09:00,82.2,65.0,29.85,WSW,258,1.0,7.0,56,0.00,,BKN110,0.00,472.00,VWS V14.00,2013-04-11 20:09:00,
2013-04-11 16:14:00,82.6,65.3,29.85,SSW,202,1.0,7.0,56,0.00,,BKN110,0.00,238.00,VWS V14.00,2013-04-11 20:14:00,
2013-04-11 16:19:00,82.4,64.1,29.84,SW,223,5.0,10.0,54,0.00,,BKN110,0.00,206.00,VWS V14.00,2013-04-11 20:19:00,
2013-04-11 16:24:00,81.8,64.6,29.84,WSW,247,3.0,5.0,56,0.00,,BKN110,0.00,215.00,VWS V14.00,2013-04-11 20:24:00,
2013-04-11 16:29:00,81.2,64.5,29.84,WSW,253,1.0,10.0,57,0.00,,BKN110,0.00,208.00,VWS V14.00,2013-04-11 20:29:00,
2013-04-11 16:34:00,81.1,64.9,29.84,West,271,6.0,6.0,58,0.00,,BKN110,0.00,234.00,VWS V14.00,2013-04-11 20:34:00,
2013-04-11 16:39:00,81.1,65.4,29.84,SW,219,2.0,7.0,59,0.00,,BKN110,0.00,399.00,VWS V14.00,2013-04-11 20:39:00,
2013-04-11 16:44:00,81.2,65.5,29.84,SW,215,2.0,5.0,59,0.00,,BKN110,0.00,287.00,VWS V14.00,2013-04-11 20:44:00,
2013-04-11 16:49:00,81.6,64.9,29.83,SSW,192,0.0,8.0,57,0.00,,BKN110,0.00,208.00,VWS V14.00,2013-04-11 20:49:00,
2013-04-11 16:54:00,81.6,64.9,29.83,WSW,248,6.0,11.0,57,0.00,,BKN110,0.00,218.00,VWS V14.00,2013-04-11 20:54:00,
2013-04-11 17:00:00,81.6,64.9,29.83,SSE,161,0.0,11.0,57,0.00,,BKN110,0.00,262.00,VWS V14.00,2013-04-11 21:00:00,
2013-04-11 17:05:00,81.6,64.9,29.82,SSW,195,0.0,7.0,57,0.00,,BKN120,0.00,274.00,VWS V14.00,2013-04-11 21:05:00,
2013-04-11 17:10:00,81.6,64.9,29.82,SW,219,1.0,9.0,57,0.00,,BKN120,0.00,274.00,VWS V14.00,2013-04-11 21:10:00,
2013-04-11 17:15:00,81.6,64.9,29.82,South,191,2.0,10.0,57,0.00,,BKN120,0.00,192.00,VWS V14.00,2013-04-11 21:15:00,
2013-04-11 17:20:00,81.6,65.4,29.82,SSW,212,0.0,10.0,58,0.00,,BKN120,0.00,188.00,VWS V14.00,2013-04-11 21:20:00,
2013-04-11 17:25:00,81.6,65.4,29.82,SW,223,4.0,7.0,58,0.00,,BKN120,0.00,171.00,VWS V14.00,2013-04-11 21:25:00,
2013-04-11 17:30:00,81.4,65.7,29.81,SW,229,0.0,7.0,59,0.00,,BKN120,0.00,157.00,VWS V14.00,2013-04-11 21:30:00,
2013-04-11 17:35:00,81.2,65.5,29.81,SW,229,1.0,3.0,59,0.00,,BKN120,0.00,104.00,VWS V14.00,2013-04-11 21:35:00,
2013-04-11 17:40:00,81.2,65.5,29.81,SSW,209,0.0,3.0,59,0.00,,BKN120,0.00,132.00,VWS V14.00,2013-04-11 21:40:00,
2013-04-11 17:45:00,81.2,66.0,29.81,SSW,208,0.0,3.0,60,0.00,,BKN120,0.00,211.00,VWS V14.00,2013-04-11 21:45:00,
2013-04-11 17:50:00,81.2,65.5,29.81,SW,215,3.0,3.0,59,0.00,,BKN120,0.00,195.00,VWS V14.00,2013-04-11 21:50:00,
2013-04-11 17:55:00,81.2,65.0,29.81,SSW,208,0.0,6.0,58,0.00,,BKN120,0.00,127.00,VWS V14.00,2013-04-11 21:55:00,
2013-04-11 18:00:00,81.2,65.5,29.81,SSW,195,0.0,9.0,59,0.00,,BKN120,0.00,104.00,VWS V14.00,2013-04-11 22:00:00,
2013-04-11 18:05:00,81.1,65.4,29.81,South,182,2.0,6.0,59,0.00,,FEW110,0.00,91.00,VWS V14.00,2013-04-11 22:05:00,
2013-04-11 18:10:00,80.9,65.2,29.81,WSW,237,8.0,11.0,59,0.00,,FEW110,0.00,81.00,VWS V14.00,2013-04-11 22:10:00,
2013-04-11 18:15:00,80.7,65.5,29.81,South,186,0.0,7.0,60,0.00,,FEW110,0.00,83.00,VWS V14.00,2013-04-11 22:15:00,
2013-04-11 18:20:00,80.5,65.8,29.81,WSW,246,3.0,7.0,61,0.00,,FEW110,0.00,70.00,VWS V14.00,2013-04-11 22:20:00,
2013-04-11 18:25:00,80.3,66.1,29.81,South,174,2.0,5.0,62,0.00,,FEW110,0.00,60.00,VWS V14.00,2013-04-11 22:25:00,
2013-04-11 18:30:00,80.3,66.1,29.81,SSW,192,0.0,5.0,62,0.00,,FEW110,0.00,60.00,VWS V14.00,2013-04-11 22:30:00,
2013-04-11 18:35:00,80.1,66.4,29.81,South,176,0.0,1.0,63,0.00,,FEW110,0.00,48.00,VWS V14.00,2013-04-11 22:35:00,
2013-04-11 18:40:00,79.8,66.6,29.81,South,172,0.0,6.0,64,0.00,,FEW110,0.00,30.00,VWS V14.00,2013-04-11 22:40:00,
2013-04-11 18:45:00,79.2,66.0,29.81,WSW,258,1.0,8.0,64,0.00,,FEW110,0.00,26.00,VWS V14.00,2013-04-11 22:45:00,
2013-04-11 18:51:00,78.3,66.0,29.81,SW,230,6.0,6.0,66,0.00,,FEW110,0.00,18.00,VWS V14.00,2013-04-11 22:51:00,
2013-04-11 18:56:00,77.6,65.8,29.81,SSE,160,6.0,10.0,67,0.00,,FEW110,0.00,40.00,VWS V14.00,2013-04-11 22:56:00,
2013-04-11 19:01:00,76.8,65.9,29.82,South,185,0.0,11.0,69,0.00,,FEW110,0.00,42.00,VWS V14.00,2013-04-11 23:01:00,
2013-04-11 19:06:00,75.8,65.3,29.82,SSW,210,2.0,11.0,70,0.00,,BKN090,0.00,28.00,VWS V14.00,2013-04-11 23:06:00,
2013-04-11 19:11:00,74.9,64.5,29.82,South,171,0.0,0.0,70,0.00,,BKN090,0.00,19.00,VWS V14.00,2013-04-11 23:11:00,
2013-04-11 19:16:00,74.0,64.4,29.82,South,174,0.0,7.0,72,0.00,,,0.00,11.00,VWS V14.00,2013-04-11 23:16:00,
2013-04-11 19:21:00,73.3,64.5,29.82,SSW,208,0.0,0.0,74,0.00,,,0.00,7.00,VWS V14.00,2013-04-11 23:21:00,
2013-04-11 19:27:00,73.0,65.4,29.82,SW,227,0.0,2.0,77,0.00,,,0.00,5.00,VWS V14.00,2013-04-11 23:27:00,
2013-04-11 19:32:00,72.7,65.8,29.81,SSW,208,3.0,3.0,79,0.00,,,0.00,5.00,VWS V14.00,2013-04-11 23:32:00,
2013-04-11 19:37:00,72.1,65.9,29.81,South,186,0.0,6.0,81,0.00,,,0.00,0.00,VWS V14.00,2013-04-11 23:37:00,
2013-04-11 19:42:00,71.8,66.4,29.81,SW,216,3.0,3.0,83,0.00,,,0.00,5.00,VWS V14.00,2013-04-11 23:42:00,
2013-04-11 19:47:00,71.3,66.2,29.82,SSW,209,3.0,6.0,84,0.00,,,0.00,0.00,VWS V14.00,2013-04-11 23:47:00,
2013-04-11 19:52:00,71.1,66.7,29.82,SSE,157,0.0,0.0,86,0.00,,BKN060,0.00,0.00,VWS V14.00,2013-04-11 23:52:00,
2013-04-11 19:57:00,70.9,66.8,29.82,SE,140,0.0,1.0,87,0.00,,BKN060,0.00,0.00,VWS V14.00,2013-04-11 23:57:00,
2013-04-11 20:02:00,70.8,66.7,29.82,South,175,0.0,0.0,87,0.00,,BKN120,0.00,0.00,VWS V14.00,2013-04-12 00:02:00,
2013-04-11 20:07:00,70.8,67.1,29.82,South,175,0.0,5.0,88,0.00,,BKN120,0.00,0.00,VWS V14.00,2013-04-12 00:07:00,
2013-04-11 20:12:00,70.6,66.9,29.82,South,186,1.0,1.0,88,0.00,,BKN120,0.00,0.00,VWS V14.00,2013-04-12 00:12:00,
2013-04-11 20:17:00,70.4,67.0,29.82,SSW,210,0.0,3.0,89,0.00,,BKN120,0.00,0.00,VWS V14.00,2013-04-12 00:17:00,
2013-04-11 20:22:00,70.4,67.0,29.82,SSW,202,2.0,2.0,89,0.00,,BKN120,0.00,0.00,VWS V14.00,2013-04-12 00:22:00,
2013-04-11 20:27:00,70.4,67.3,29.82,WSW,240,0.0,7.0,90,0.00,,BKN120,0.00,0.00,VWS V14.00,2013-04-12 00:27:00,
2013-04-11 20:32:00,70.6,67.5,29.81,South,182,0.0,3.0,90,0.00,,BKN120,0.00,0.00,VWS V14.00,2013-04-12 00:32:00,
2013-04-11 20:37:00,70.6,67.5,29.81,South,189,1.0,6.0,90,0.00,,BKN120,0.00,0.00,VWS V14.00,2013-04-12 00:37:00,
2013-04-11 20:42:00,70.6,66.2,29.81,South,185,1.0,7.0,86,0.00,,BKN120,0.00,0.00,VWS V14.00,2013-04-12 00:42:00,
2013-04-11 20:47:00,70.4,66.0,29.81,WSW,239,0.0,7.0,86,0.00,,BKN120,0.00,0.00,VWS V14.00,2013-04-12 00:47:00,
2013-04-11 20:52:00,70.4,66.0,29.81,SSW,199,0.0,1.0,86,0.00,,BKN120,0.00,0.00,VWS V14.00,2013-04-12 00:52:00,
2013-04-11 20:57:00,70.3,65.9,29.81,SW,222,0.0,5.0,86,0.00,,BKN120,0.00,0.00,VWS V14.00,2013-04-12 00:57:00,
2013-04-11 21:02:00,70.1,65.7,29.80,SSW,213,2.0,6.0,86,0.00,,SCT120,0.00,0.00,VWS V14.00,2013-04-12 01:02:00,
2013-04-11 21:07:00,70.1,65.7,29.80,SSW,198,0.0,6.0,86,0.00,,SCT120,0.00,0.00,VWS V14.00,2013-04-12 01:07:00,
2013-04-11 21:12:00,70.1,65.7,29.80,South,179,2.0,3.0,86,0.00,,SCT120,0.00,0.00,VWS V14.00,2013-04-12 01:12:00,
2013-04-11 21:17:00,70.1,65.7,29.80,South,189,0.0,5.0,86,0.00,,SCT120,0.00,0.00,VWS V14.00,2013-04-12 01:17:00,
2013-04-11 21:22:00,70.1,65.7,29.80,SSW,192,0.0,6.0,86,0.00,,SCT120,0.00,0.00,VWS V14.00,2013-04-12 01:22:00,
2013-04-11 21:27:00,70.1,65.7,29.80,South,178,1.0,7.0,86,0.00,,SCT120,0.00,0.00,VWS V14.00,2013-04-12 01:27:00,
2013-04-11 21:32:00,69.9,65.5,29.80,South,172,1.0,5.0,86,0.00,,SCT120,0.00,0.00,VWS V14.00,2013-04-12 01:32:00,
2013-04-11 21:37:00,69.9,65.9,29.80,SSW,200,0.0,6.0,87,0.00,,SCT120,0.00,0.00,VWS V14.00,2013-04-12 01:37:00,
2013-04-11 21:42:00,69.9,65.9,29.80,South,189,0.0,6.0,87,0.00,,SCT120,0.00,0.00,VWS V14.00,2013-04-12 01:42:00,
2013-04-11 21:47:00,69.8,65.8,29.81,SSW,192,0.0,6.0,87,0.00,,SCT120,0.00,0.00,VWS V14.00,2013-04-12 01:47:00,
2013-04-11 21:52:00,69.8,65.8,29.81,South,178,1.0,2.0,87,0.00,,SCT120,0.00,0.00,VWS V14.00,2013-04-12 01:52:00,
2013-04-11 21:58:00,69.6,65.6,29.81,SSW,196,3.0,10.0,87,0.00,,SCT120,0.00,0.00,VWS V14.00,2013-04-12 01:58:00,
2013-04-11 22:03:00,69.6,65.6,29.81,SSW,212,0.0,4.0,87,0.00,,SCT050,0.00,0.00,VWS V14.00,2013-04-12 02:03:00,
2013-04-11 22:08:00,69.6,65.6,29.81,SSE,162,0.0,7.0,87,0.00,,SCT050,0.00,0.00,VWS V14.00,2013-04-12 02:08:00,
2013-04-11 22:13:00,69.4,65.4,29.81,South,189,3.0,3.0,87,0.00,,SCT050,0.00,0.00,VWS V14.00,2013-04-12 02:13:00,
2013-04-11 22:18:00,69.4,65.4,29.81,SSE,164,0.0,6.0,87,0.00,,SCT050,0.00,0.00,VWS V14.00,2013-04-12 02:18:00,
2013-04-11 22:23:00,69.3,65.3,29.81,SSW,210,1.0,3.0,87,0.00,,SCT050,0.00,0.00,VWS V14.00,2013-04-12 02:23:00,
2013-04-11 22:28:00,69.3,65.3,29.81,South,185,1.0,7.0,87,0.00,,SCT050,0.00,0.00,VWS V14.00,2013-04-12 02:28:00,
2013-04-11 22:33:00,69.3,65.3,29.82,SW,217,5.0,6.0,87,0.00,,SCT050,0.00,0.00,VWS V14.00,2013-04-12 02:33:00,
2013-04-11 22:38:00,69.1,65.1,29.82,SSW,210,2.0,7.0,87,0.00,,SCT050,0.00,0.00,VWS V14.00,2013-04-12 02:38:00,
2013-04-11 22:43:00,69.1,65.1,29.82,SSW,192,0.0,6.0,87,0.00,,SCT050,0.00,0.00,VWS V14.00,2013-04-12 02:43:00,
2013-04-11 22:48:00,69.1,65.1,29.82,SW,223,2.0,7.0,87,0.00,,SCT050,0.00,0.00,VWS V14.00,2013-04-12 02:48:00,
2013-04-11 22:53:00,68.9,64.9,29.82,SE,140,3.0,6.0,87,0.00,,SCT050,0.00,0.00,VWS V14.00,2013-04-12 02:53:00,
2013-04-11 22:58:00,68.9,64.9,29.82,SW,222,0.0,7.0,87,0.00,,SCT050,0.00,0.00,VWS V14.00,2013-04-12 02:58:00,
2013-04-11 23:03:00,68.9,64.9,29.81,SSW,212,0.0,4.0,87,0.00,,FEW012,0.00,0.00,VWS V14.00,2013-04-12 03:03:00,
2013-04-11 23:08:00,68.9,64.9,29.81,WNW,284,0.0,5.0,87,0.00,,FEW012,0.00,0.00,VWS V14.00,2013-04-12 03:08:00,
2013-04-11 23:13:00,68.8,64.4,29.81,East,95,3.0,8.0,86,0.00,,FEW012,0.00,0.00,VWS V14.00,2013-04-12 03:13:00,
2013-04-11 23:18:00,68.8,64.4,29.81,SW,229,0.0,10.0,86,0.00,,FEW012,0.00,0.00,VWS V14.00,2013-04-12 03:18:00,
2013-04-11 23:23:00,68.8,64.4,29.81,ESE,109,0.0,10.0,86,0.00,,FEW012,0.00,0.00,VWS V14.00,2013-04-12 03:23:00,
2013-04-11 23:28:00,68.8,64.4,29.81,South,186,4.0,11.0,86,0.00,,FEW012,0.00,0.00,VWS V14.00,2013-04-12 03:28:00,
2013-04-11 23:33:00,68.8,64.4,29.81,South,188,1.0,6.0,86,0.00,,FEW012,0.00,0.00,VWS V14.00,2013-04-12 03:33:00,
2013-04-11 23:38:00,68.8,64.4,29.81,SW,215,1.0,7.0,86,0.00,,FEW012,0.00,0.00,VWS V14.00,2013-04-12 03:38:00,
2013-04-11 23:43:00,68.8,64.4,29.81,South,191,0.0,7.0,86,0.00,,BKN110,0.00,0.00,VWS V14.00,2013-04-12 03:43:00,
2013-04-11 23:48:00,68.8,64.4,29.81,WSW,244,8.0,13.0,86,0.00,,BKN110,0.00,0.00,VWS V14.00,2013-04-12 03:48:00,
2013-04-11 23:53:00,68.8,64.4,29.81,South,174,0.0,7.0,86,0.00,,BKN110,0.00,0.00,VWS V14.00,2013-04-12 03:53:00,
2013-04-11 23:58:00,68.8,64.4,29.81,SSE,161,7.0,9.0,86,0.00,,BKN110,0.00,0.00,VWS V14.00,2013-04-12 03:58:00,